createdAt,value
2019-05-19T00:00:53.292Z,100219.64
2019-05-19T00:03:26.112Z,100215.27
2019-05-19T00:05:59.974Z,100218.48
2019-05-19T00:08:32.776Z,100216.35
2019-05-19T00:11:05.727Z,100218.15
2019-05-19T00:13:38.594Z,100213.37
2019-05-19T00:16:12.375Z,100223.58
2019-05-19T00:18:45.229Z,100228.56
2019-05-19T00:21:18.153Z,100231.16
2019-05-19T00:23:51.417Z,100234.73
2019-05-19T00:26:24.556Z,100223.70
2019-05-19T00:28:57.438Z,100231.62
2019-05-19T00:31:30.271Z,100231.70
2019-05-19T00:34:03.263Z,100231.75
2019-05-19T00:36:36.454Z,100224.23
2019-05-19T00:39:09.361Z,100226.00
2019-05-19T00:41:42.167Z,100218.90
2019-05-19T00:44:15.266Z,100224.10
2019-05-19T00:46:49.371Z,100223.63
2019-05-19T00:49:22.234Z,100221.88
2019-05-19T00:51:55.037Z,100218.38
2019-05-19T00:54:28.062Z,100220.03
2019-05-19T00:57:02.158Z,100217.27
2019-05-19T00:59:36.769Z,100216.80
2019-05-19T01:02:09.579Z,100214.63
2019-05-19T01:04:42.733Z,100208.52
2019-05-19T01:07:15.618Z,100211.05
2019-05-19T01:09:48.528Z,100208.42
2019-05-19T01:12:21.438Z,100212.42
2019-05-19T01:14:54.326Z,100215.52
2019-05-19T01:17:28.102Z,100209.75
2019-05-19T01:20:01.028Z,100208.88
2019-05-19T01:22:35.136Z,100204.98
2019-05-19T01:25:08.671Z,100202.00
2019-05-19T01:27:41.581Z,100193.17
2019-05-19T01:30:17.073Z,100197.95
2019-05-19T01:32:49.880Z,100187.90
2019-05-19T01:35:22.713Z,100191.91
2019-05-19T01:37:55.590Z,100184.91
2019-05-19T01:40:28.438Z,100178.84
2019-05-19T01:43:01.310Z,100181.95
2019-05-19T01:45:34.263Z,100178.99
2019-05-19T01:48:07.061Z,100182.42
2019-05-19T01:50:40.294Z,100174.46
2019-05-19T01:53:13.127Z,100169.61
2019-05-19T01:55:47.038Z,100175.77
2019-05-19T01:58:20.126Z,100172.14
2019-05-19T02:00:52.935Z,100173.58
2019-05-19T02:03:25.814Z,100163.97
2019-05-19T02:06:00.099Z,100169.70
2019-05-19T02:08:33.018Z,100174.59
2019-05-19T02:11:05.852Z,100185.81
2019-05-19T02:13:38.653Z,100186.69
2019-05-19T02:16:11.542Z,100178.59
2019-05-19T02:18:44.335Z,100179.90
2019-05-19T02:21:17.296Z,100197.98
2019-05-19T02:23:50.138Z,100195.11
2019-05-19T02:26:23.123Z,100194.75
2019-05-19T02:28:55.954Z,100202.78
2019-05-19T02:31:28.789Z,100192.66
2019-05-19T02:34:02.510Z,100190.89
2019-05-19T02:36:35.329Z,100198.40
2019-05-19T02:39:08.898Z,100193.02
2019-05-19T02:41:44.077Z,100188.69
2019-05-19T02:44:19.026Z,100193.84
2019-05-19T02:46:55.121Z,100192.42
2019-05-19T02:49:30.761Z,100186.19
2019-05-19T02:52:05.599Z,100178.37
2019-05-19T02:54:38.864Z,100174.48
2019-05-19T02:57:11.989Z,100176.69
2019-05-19T02:59:46.390Z,100172.80
2019-05-19T03:02:19.227Z,100174.66
2019-05-19T03:04:52.156Z,100174.32
2019-05-19T03:07:25.037Z,100180.97
2019-05-19T03:09:57.956Z,100177.48
2019-05-19T03:12:30.758Z,100171.33
2019-05-19T03:15:03.654Z,100170.39
2019-05-19T03:17:36.843Z,100169.48
2019-05-19T03:20:09.799Z,100166.77
2019-05-19T03:22:42.603Z,100174.66
2019-05-19T03:25:15.470Z,100178.63
2019-05-19T03:27:48.288Z,100175.55
2019-05-19T03:30:39.056Z,100176.85
2019-05-19T03:33:12.705Z,100178.20
2019-05-19T03:35:45.748Z,100181.77
2019-05-19T03:38:18.954Z,100183.52
2019-05-19T03:40:51.829Z,100180.84
2019-05-19T03:43:24.656Z,100191.42
2019-05-19T03:45:57.467Z,100185.36
2019-05-19T03:48:30.305Z,100178.81
2019-05-19T03:51:03.133Z,100181.92
2019-05-19T03:53:36.462Z,100176.17
2019-05-19T03:56:09.275Z,100179.09
2019-05-19T03:58:42.132Z,100170.52
2019-05-19T04:01:14.952Z,100173.28
2019-05-19T04:03:47.795Z,100183.63
2019-05-19T04:06:20.633Z,100178.59
2019-05-19T04:08:53.453Z,100184.14
2019-05-19T04:11:26.293Z,100182.81
2019-05-19T04:13:59.155Z,100186.75
2019-05-19T04:16:32.044Z,100186.00
2019-05-19T04:19:04.970Z,100195.41
2019-05-19T04:21:48.344Z,100190.35
2019-05-19T04:24:12.341Z,100193.89
2019-05-19T04:26:45.148Z,100202.52
2019-05-19T04:29:18.001Z,100197.59
2019-05-19T04:31:50.872Z,100198.17
2019-05-19T04:34:23.757Z,100195.55
2019-05-19T04:36:56.589Z,100203.20
2019-05-19T04:39:29.604Z,100206.37
2019-05-19T04:42:02.519Z,100204.22
2019-05-19T04:44:35.478Z,100209.20
2019-05-19T04:47:08.387Z,100213.95
2019-05-19T04:49:42.753Z,100215.72
2019-05-19T04:52:17.150Z,100215.45
2019-05-19T04:54:50.538Z,100216.65
2019-05-19T04:57:23.539Z,100221.43
2019-05-19T04:59:56.353Z,100216.78
2019-05-19T05:02:29.145Z,100209.52
2019-05-19T05:05:02.060Z,100206.87
2019-05-19T05:07:35.016Z,100187.03
2019-05-19T05:10:07.852Z,100190.19
2019-05-19T05:12:40.720Z,100188.50
2019-05-19T05:15:13.516Z,100178.77
2019-05-19T05:17:46.367Z,100166.03
2019-05-19T05:20:19.277Z,100164.71
2019-05-19T05:22:52.068Z,100166.34
2019-05-19T05:25:24.956Z,100152.03
2019-05-19T05:27:57.749Z,100147.03
2019-05-19T05:30:30.575Z,100151.73
2019-05-19T05:33:03.385Z,100152.55
2019-05-19T05:35:36.233Z,100152.34
2019-05-19T05:38:09.080Z,100154.84
2019-05-19T05:40:41.946Z,100163.97
2019-05-19T05:43:14.760Z,100165.69
2019-05-19T05:45:47.585Z,100154.53
2019-05-19T05:48:21.434Z,100160.10
2019-05-19T05:50:54.277Z,100150.68
2019-05-19T05:53:27.179Z,100158.19
2019-05-19T05:56:00.021Z,100150.44
2019-05-19T05:58:32.906Z,100158.73
2019-05-19T06:01:05.919Z,100147.23
2019-05-19T06:03:38.779Z,100144.05
2019-05-19T06:06:11.615Z,100143.78
2019-05-19T06:08:44.539Z,100167.59
2019-05-19T06:11:17.431Z,100182.66
2019-05-19T06:13:50.361Z,100180.67
2019-05-19T06:16:23.211Z,100172.39
2019-05-19T06:18:56.904Z,100167.91
2019-05-19T06:21:30.253Z,100168.72
2019-05-19T06:24:03.201Z,100166.72
2019-05-19T06:26:36.030Z,100159.91
2019-05-19T06:29:09.020Z,100160.36
2019-05-19T06:31:42.077Z,100150.37
2019-05-19T06:34:14.889Z,100147.59
2019-05-19T06:36:47.710Z,100141.44
2019-05-19T06:39:20.721Z,100133.49
2019-05-19T06:41:53.895Z,100127.40
2019-05-19T06:44:26.881Z,100124.08
2019-05-19T06:46:59.791Z,100123.42
2019-05-19T06:49:32.860Z,100120.56
2019-05-19T06:52:05.880Z,100120.66
2019-05-19T06:54:38.883Z,100117.53
2019-05-19T06:57:11.873Z,100123.31
2019-05-19T06:59:44.850Z,100130.61
2019-05-19T07:02:17.762Z,100156.87
2019-05-19T07:04:50.608Z,100205.78
2019-05-19T07:07:23.615Z,100195.41
2019-05-19T07:09:58.978Z,100229.83
2019-05-19T07:12:32.425Z,100235.97
2019-05-19T07:21:49.441Z,100225.91
2019-05-19T07:24:22.716Z,100225.91
2019-05-19T07:26:56.059Z,100229.04
2019-05-19T07:29:29.380Z,100215.83
2019-05-19T07:32:02.440Z,100185.30
2019-05-19T07:34:35.380Z,100166.23
2019-05-19T07:37:11.286Z,100155.95
2019-05-19T07:39:44.146Z,100158.16
2019-05-19T07:42:17.102Z,100179.44
2019-05-19T07:44:49.984Z,100175.28
2019-05-19T07:47:22.985Z,100176.83
2019-05-19T07:49:55.864Z,100183.33
2019-05-19T07:52:28.891Z,100167.86
2019-05-19T07:55:01.803Z,100160.88
2019-05-19T07:57:34.671Z,100160.13
2019-05-19T08:00:09.494Z,100163.79
2019-05-19T08:02:42.413Z,100177.48
2019-05-19T15:03:47.762Z,99947.83
2019-05-19T15:06:20.952Z,99947.71
2019-05-19T15:08:53.812Z,99937.75
2019-05-19T15:11:26.599Z,99935.71
2019-05-19T15:13:59.508Z,99938.30
2019-05-19T15:16:32.414Z,99948.60
2019-05-19T15:19:05.290Z,99943.69
2019-05-19T15:21:38.085Z,99947.55
2019-05-19T15:24:13.762Z,99940.70
2019-05-19T15:26:46.664Z,99947.80
2019-05-19T15:29:19.581Z,99957.72
2019-05-19T15:31:52.401Z,99954.66
2019-05-19T15:34:25.241Z,99956.02
2019-05-19T15:36:58.088Z,99955.15
2019-05-19T15:39:30.984Z,99959.20
2019-05-19T15:42:03.855Z,99957.53
2019-05-19T15:44:36.777Z,99961.21
2019-05-19T15:47:10.680Z,99959.66
2019-05-19T15:49:43.487Z,99957.83
2019-05-19T15:52:16.314Z,99954.79
2019-05-19T15:54:49.120Z,99966.98
2019-05-19T15:57:22.168Z,99972.58
2019-05-19T15:59:55.103Z,99973.73
2019-05-19T16:02:27.918Z,99970.30
2019-05-19T16:05:00.770Z,99982.27
2019-05-19T16:07:33.524Z,99972.14
2019-05-19T16:10:06.691Z,99972.98
2019-05-19T16:12:39.568Z,99967.06
2019-05-19T16:15:13.283Z,99967.02
2019-05-19T16:17:46.196Z,99954.91
2019-05-19T16:20:19.466Z,99964.52
2019-05-19T16:22:56.509Z,99962.31
2019-05-19T16:25:29.380Z,99962.21
2019-05-19T16:28:02.297Z,99965.94
2019-05-19T16:30:36.287Z,99965.81
2019-05-19T16:33:09.178Z,99962.00
2019-05-19T16:35:42.065Z,99957.98
2019-05-19T16:38:15.238Z,99958.03
2019-05-19T16:40:48.239Z,99972.84
2019-05-19T16:43:21.174Z,99976.26
2019-05-19T16:45:54.141Z,99978.72
2019-05-19T16:48:27.056Z,99973.03
2019-05-19T16:51:04.357Z,99973.14
2019-05-19T16:53:37.845Z,99985.81
2019-05-19T16:56:11.024Z,99987.08
2019-05-19T16:58:45.580Z,99981.25
2019-05-19T17:01:20.074Z,99981.07
2019-05-19T17:03:53.307Z,99983.38
2019-05-19T17:06:26.512Z,99980.30
2019-05-19T17:08:59.388Z,99973.85
2019-05-19T17:11:35.463Z,99969.83
2019-05-19T17:14:08.395Z,99968.41
2019-05-19T17:16:41.542Z,99973.88
2019-05-19T17:19:14.474Z,99974.66
2019-05-19T17:21:47.516Z,99987.69
2019-05-19T17:24:20.439Z,99989.64
2019-05-19T17:26:53.297Z,99992.56
2019-05-19T17:29:27.818Z,99988.29
2019-05-19T17:32:05.944Z,99987.80
2019-05-19T17:34:35.192Z,99969.39
2019-05-19T17:37:08.102Z,99969.69
2019-05-19T17:39:40.905Z,99970.55
2019-05-19T17:42:13.990Z,99972.23
2019-05-19T17:44:47.093Z,99978.13
2019-05-19T17:47:20.019Z,99973.08
2019-05-19T17:49:52.813Z,99986.13
2019-05-19T17:52:25.701Z,99981.08
2019-05-19T17:54:58.623Z,99974.45
2019-05-19T17:57:32.217Z,99981.28
2019-05-19T18:00:06.212Z,99982.85
2019-05-19T18:02:39.247Z,99969.16
2019-05-19T18:05:12.325Z,99967.09
2019-05-19T18:07:45.197Z,99965.85
2019-05-19T18:10:18.119Z,99960.30
2019-05-19T18:12:51.070Z,99950.77
2019-05-19T18:15:23.884Z,99944.08
2019-05-19T18:17:58.436Z,99937.55
2019-05-19T18:20:31.385Z,99935.23
2019-05-19T18:23:04.308Z,99934.30
2019-05-19T18:25:37.279Z,99936.40
2019-05-19T18:28:10.624Z,99929.72
2019-05-19T18:30:43.654Z,99929.94
2019-05-19T18:33:18.215Z,99937.17
2019-05-19T18:35:51.067Z,99937.55
2019-05-19T18:38:24.073Z,99932.61
2019-05-19T18:40:56.877Z,99939.11
2019-05-19T18:43:29.816Z,99938.30
2019-05-19T18:46:02.725Z,99938.17
2019-05-19T18:48:38.795Z,99942.70
2019-05-19T18:51:11.801Z,99943.25
2019-05-19T18:53:46.685Z,99955.88
2019-05-19T18:56:22.907Z,99954.93
2019-05-19T18:58:56.028Z,99972.44
2019-05-19T19:01:33.458Z,99976.35
2019-05-19T19:04:08.167Z,99982.09
2019-05-19T19:06:41.241Z,99981.39
2019-05-19T19:09:14.294Z,99972.51
2019-05-19T19:11:47.269Z,99976.09
2019-05-19T19:14:20.426Z,99976.11
2019-05-19T19:16:53.355Z,99995.08
2019-05-19T19:19:29.599Z,99999.55
2019-05-19T19:22:04.038Z,100006.73
2019-05-19T19:24:38.669Z,100011.55
2019-05-19T19:27:11.679Z,100011.84
2019-05-19T19:29:44.715Z,100010.78
2019-05-19T19:32:17.600Z,100010.99
2019-05-19T19:34:50.494Z,100010.53
2019-05-19T19:37:23.420Z,100005.66
2019-05-19T19:39:56.321Z,99996.46
2019-05-19T19:42:29.262Z,99995.11
2019-05-19T19:45:02.159Z,99985.15
2019-05-19T19:47:36.490Z,99993.45
2019-05-19T19:50:09.600Z,99992.59
2019-05-19T19:52:42.703Z,99988.14
2019-05-19T19:55:15.729Z,99990.03
2019-05-19T19:57:48.746Z,99971.37
2019-05-19T20:00:42.412Z,99973.25
2019-05-19T20:03:16.390Z,99966.28
2019-05-19T20:05:50.932Z,99968.08
2019-05-19T20:08:23.857Z,99952.86
2019-05-19T20:10:56.742Z,99949.38
2019-05-19T20:13:29.675Z,99945.84
2019-05-19T20:16:02.580Z,99945.78
2019-05-19T20:18:35.348Z,99938.03
2019-05-19T20:21:08.214Z,99940.05
2019-05-19T20:23:41.249Z,99938.91
2019-05-19T20:26:14.132Z,99940.39
2019-05-19T20:28:47.081Z,99941.72
2019-05-19T20:31:19.916Z,99943.13
2019-05-19T20:33:52.854Z,99940.57
2019-05-19T20:36:26.039Z,99933.05
2019-05-19T20:38:58.927Z,99938.56
2019-05-19T20:41:31.812Z,99929.02
2019-05-19T20:44:05.241Z,99929.11
2019-05-19T20:46:38.075Z,99931.86
2019-05-19T20:49:11.026Z,99940.53
2019-05-19T20:51:44.817Z,99943.23
2019-05-19T20:54:17.620Z,99940.75
2019-05-19T20:56:50.837Z,99942.18
2019-05-19T20:59:24.643Z,99941.67
2019-05-19T21:01:57.493Z,99942.64
2019-05-19T21:04:30.312Z,99940.97
2019-05-19T21:07:03.229Z,99939.28
2019-05-19T21:09:36.207Z,99940.78
2019-05-19T21:12:09.042Z,99934.81
2019-05-19T21:14:42.971Z,99934.39
2019-05-19T21:17:15.887Z,99931.73
2019-05-19T21:19:50.383Z,99933.52
2019-05-19T21:22:23.204Z,99931.78
2019-05-19T21:24:56.066Z,99933.33
2019-05-19T21:27:29.829Z,99931.58
2019-05-19T21:30:02.665Z,99926.94
2019-05-19T21:32:35.538Z,99927.86
2019-05-19T21:35:09.008Z,99929.77
2019-05-19T21:37:41.849Z,99927.16
2019-05-19T21:40:14.796Z,99927.23
2019-05-19T21:42:47.608Z,99927.37
2019-05-19T21:45:20.582Z,99929.48
2019-05-19T21:47:53.421Z,99932.03
2019-05-19T21:50:26.256Z,99928.62
2019-05-19T21:52:59.170Z,99936.72
2019-05-19T21:55:31.971Z,99941.22
2019-05-19T21:58:04.954Z,99938.75
2019-05-19T22:00:37.838Z,99940.59
2019-05-19T22:03:10.859Z,99936.72
2019-05-19T22:05:52.845Z,99937.41
2019-05-19T22:08:18.693Z,99944.63
2019-05-19T22:10:51.488Z,99941.22
2019-05-19T22:13:24.366Z,99941.75
2019-05-19T22:16:11.600Z,99940.05
2019-05-19T22:18:31.973Z,99943.66
2019-05-19T22:21:04.836Z,99952.42
2019-05-19T22:23:37.672Z,99947.72
2019-05-19T22:26:10.577Z,99952.77
2019-05-19T22:28:43.410Z,99945.75
2019-05-19T22:31:16.409Z,99948.56
2019-05-19T22:33:49.314Z,99949.97
2019-05-19T22:36:22.122Z,99949.25
2019-05-19T22:38:55.000Z,99949.89
2019-05-19T22:41:27.812Z,99944.62
2019-05-19T22:44:00.887Z,99941.20
2019-05-19T22:46:34.760Z,99940.66
2019-05-19T22:49:07.641Z,99941.33
2019-05-19T22:51:40.500Z,99940.19
2019-05-19T22:54:13.339Z,99936.34
2019-05-19T22:56:46.137Z,99939.00
2019-05-19T22:59:20.449Z,99938.02
2019-05-19T23:01:53.487Z,99933.63
2019-05-19T23:04:26.493Z,99939.87
2019-05-19T23:06:59.424Z,99939.95
2019-05-19T23:09:32.420Z,99935.23
2019-05-19T23:12:05.213Z,99931.75
2019-05-19T23:14:39.135Z,99934.92
2019-05-19T23:17:11.939Z,99930.24
2019-05-19T23:19:45.032Z,99929.51
2019-05-19T23:22:17.848Z,99924.20
2019-05-19T23:24:51.957Z,99922.45
2019-05-19T23:27:24.847Z,99918.20
2019-05-19T23:29:57.774Z,99927.13
2019-05-19T23:32:30.640Z,99932.61
2019-05-19T23:35:03.493Z,99928.80
2019-05-19T23:37:36.387Z,99927.05
2019-05-19T23:40:10.498Z,99930.58
2019-05-19T23:42:43.383Z,99924.92
2019-05-19T23:45:16.759Z,99924.98
2019-05-19T23:47:49.589Z,99926.77
2019-05-19T23:50:22.383Z,99932.52
2019-05-19T23:52:55.214Z,99932.87
2019-05-19T23:55:27.995Z,99929.77
2019-05-19T23:58:00.929Z,99926.25
